sensor_id;sensor_type;location;lat;lon;timestamp;P1;P2;P0
31163;PMS5003;17796;49.296;-117.656;2022-11-09T00:07:52;12;11;
31163;PMS5003;17796;49.296;-117.656;2022-11-09T00:22:56;12;10;
31163;PMS5003;17796;49.296;-117.656;2022-11-09T00:37:59;8;8;
31163;PMS5003;17796;49.296;-117.656;2022-11-09T00:53:03;11;11;
31163;PMS5003;17796;49.296;-117.656;2022-11-09T01:08:08;11;10;
31163;PMS5003;17796;49.296;-117.656;2022-11-09T01:23:13;12;11;
31163;PMS5003;17796;49.296;-117.656;2022-11-09T01:38:17;9;9;
31163;PMS5003;17796;49.296;-117.656;2022-11-09T01:53:25;14;11;
31163;PMS5003;17796;49.296;-117.656;2022-11-09T02:08:31;13;10;
31163;PMS5003;17796;49.296;-117.656;2022-11-09T02:23:35;18;14;
31163;PMS5003;17796;49.296;-117.656;2022-11-09T02:38:40;14;10;
31163;PMS5003;17796;49.296;-117.656;2022-11-09T02:53:44;20;16;
31163;PMS5003;17796;49.296;-117.656;2022-11-09T03:08:48;14;14;
31163;PMS5003;17796;49.296;-117.656;2022-11-09T03:23:53;16;16;
31163;PMS5003;17796;49.296;-117.656;2022-11-09T03:38:57;17;16;
31163;PMS5003;17796;49.296;-117.656;2022-11-09T03:54:02;18;17;
31163;PMS5003;17796;49.296;-117.656;2022-11-09T04:09:06;17;16;
31163;PMS5003;17796;49.296;-117.656;2022-11-09T04:24:10;16;15;
31163;PMS5003;17796;49.296;-117.656;2022-11-09T04:39:14;22;19;
31163;PMS5003;17796;49.296;-117.656;2022-11-09T04:54:18;20;19;
31163;PMS5003;17796;49.296;-117.656;2022-11-09T05:09:22;22;20;
31163;PMS5003;17796;49.296;-117.656;2022-11-09T05:24:26;19;15;
31163;PMS5003;17796;49.296;-117.656;2022-11-09T05:39:30;24;19;
31163;PMS5003;17796;49.296;-117.656;2022-11-09T05:54:35;25;19;
31163;PMS5003;17796;49.296;-117.656;2022-11-09T06:09:39;17;15;
31163;PMS5003;17796;49.296;-117.656;2022-11-09T06:24:43;19;19;
31163;PMS5003;17796;49.296;-117.656;2022-11-09T06:39:48;22;20;
31163;PMS5003;17796;49.296;-117.656;2022-11-09T06:54:57;23;21;
31163;PMS5003;17796;49.296;-117.656;2022-11-09T07:10:01;23;20;
31163;PMS5003;17796;49.296;-117.656;2022-11-09T07:25:24;27;25;
31163;PMS5003;17796;49.296;-117.656;2022-11-09T07:40:29;26;23;
31163;PMS5003;17796;49.296;-117.656;2022-11-09T07:55:34;36;34;
31163;PMS5003;17796;49.296;-117.656;2022-11-09T08:10:39;34;28;
31163;PMS5003;17796;49.296;-117.656;2022-11-09T08:25:45;42;30;
31163;PMS5003;17796;49.296;-117.656;2022-11-09T08:40:48;43;40;
31163;PMS5003;17796;49.296;-117.656;2022-11-09T08:55:52;34;30;
31163;PMS5003;17796;49.296;-117.656;2022-11-09T09:11:00;27;26;
31163;PMS5003;17796;49.296;-117.656;2022-11-09T09:26:05;45;35;
31163;PMS5003;17796;49.296;-117.656;2022-11-09T09:41:17;23;17;
31163;PMS5003;17796;49.296;-117.656;2022-11-09T09:56:31;33;28;
31163;PMS5003;17796;49.296;-117.656;2022-11-09T10:11:43;35;27;
31163;PMS5003;17796;49.296;-117.656;2022-11-09T10:26:53;43;31;
31163;PMS5003;17796;49.296;-117.656;2022-11-09T10:41:59;35;34;
31163;PMS5003;17796;49.296;-117.656;2022-11-09T10:57:11;38;32;
31163;PMS5003;17796;49.296;-117.656;2022-11-09T11:12:26;34;28;
31163;PMS5003;17796;49.296;-117.656;2022-11-09T11:27:35;22;19;
31163;PMS5003;17796;49.296;-117.656;2022-11-09T11:42:55;40;34;
31163;PMS5003;17796;49.296;-117.656;2022-11-09T11:58:19;43;37;
31163;PMS5003;17796;49.296;-117.656;2022-11-09T12:13:41;42;35;
31163;PMS5003;17796;49.296;-117.656;2022-11-09T12:29:02;46;43;
31163;PMS5003;17796;49.296;-117.656;2022-11-09T12:44:13;35;33;
31163;PMS5003;17796;49.296;-117.656;2022-11-09T12:59:35;19;19;
31163;PMS5003;17796;49.296;-117.656;2022-11-09T13:14:39;30;22;
31163;PMS5003;17796;49.296;-117.656;2022-11-09T13:29:49;33;32;
31163;PMS5003;17796;49.296;-117.656;2022-11-09T13:44:53;36;30;
31163;PMS5003;17796;49.296;-117.656;2022-11-09T14:00:21;30;30;
31163;PMS5003;17796;49.296;-117.656;2022-11-09T14:15:36;29;27;
31163;PMS5003;17796;49.296;-117.656;2022-11-09T14:30:51;32;29;
31163;PMS5003;17796;49.296;-117.656;2022-11-09T14:45:56;36;29;
31163;PMS5003;17796;49.296;-117.656;2022-11-09T15:01:18;35;29;
31163;PMS5003;17796;49.296;-117.656;2022-11-09T15:16:26;40;36;
31163;PMS5003;17796;49.296;-117.656;2022-11-09T15:31:31;35;30;
31163;PMS5003;17796;49.296;-117.656;2022-11-09T15:46:39;39;32;
31163;PMS5003;17796;49.296;-117.656;2022-11-09T16:01:44;36;31;
31163;PMS5003;17796;49.296;-117.656;2022-11-09T16:16:48;35;28;
31163;PMS5003;17796;49.296;-117.656;2022-11-09T16:31:52;34;29;
31163;PMS5003;17796;49.296;-117.656;2022-11-09T16:46:56;33;30;
31163;PMS5003;17796;49.296;-117.656;2022-11-09T17:02:01;41;33;
31163;PMS5003;17796;49.296;-117.656;2022-11-09T17:17:05;34;33;
31163;PMS5003;17796;49.296;-117.656;2022-11-09T17:32:10;36;30;
31163;PMS5003;17796;49.296;-117.656;2022-11-09T17:47:14;44;36;
31163;PMS5003;17796;49.296;-117.656;2022-11-09T18:02:17;38;34;
31163;PMS5003;17796;49.296;-117.656;2022-11-09T18:17:21;31;28;
31163;PMS5003;17796;49.296;-117.656;2022-11-09T18:32:25;31;27;
31163;PMS5003;17796;49.296;-117.656;2022-11-09T18:47:28;35;34;
31163;PMS5003;17796;49.296;-117.656;2022-11-09T19:02:33;32;27;
31163;PMS5003;17796;49.296;-117.656;2022-11-09T19:17:38;32;30;
31163;PMS5003;17796;49.296;-117.656;2022-11-09T19:32:41;34;28;
31163;PMS5003;17796;49.296;-117.656;2022-11-09T19:47:48;34;29;
31163;PMS5003;17796;49.296;-117.656;2022-11-09T20:02:53;28;28;
31163;PMS5003;17796;49.296;-117.656;2022-11-09T20:17:56;30;27;
31163;PMS5003;17796;49.296;-117.656;2022-11-09T20:33:00;31;29;
31163;PMS5003;17796;49.296;-117.656;2022-11-09T20:48:05;28;27;
31163;PMS5003;17796;49.296;-117.656;2022-11-09T21:03:09;32;30;
31163;PMS5003;17796;49.296;-117.656;2022-11-09T21:18:13;25;25;
31163;PMS5003;17796;49.296;-117.656;2022-11-09T21:33:17;32;28;
31163;PMS5003;17796;49.296;-117.656;2022-11-09T21:48:20;30;27;
31163;PMS5003;17796;49.296;-117.656;2022-11-09T22:03:24;31;26;
31163;PMS5003;17796;49.296;-117.656;2022-11-09T22:18:31;34;28;
31163;PMS5003;17796;49.296;-117.656;2022-11-09T22:33:35;34;31;
31163;PMS5003;17796;49.296;-117.656;2022-11-09T23:09:24;36;30;
31163;PMS5003;17796;49.296;-117.656;2022-11-09T23:24:30;38;34;
31163;PMS5003;17796;49.296;-117.656;2022-11-09T23:39:34;31;25;
31163;PMS5003;17796;49.296;-117.656;2022-11-09T23:54:38;24;23;
